createdAt,value
2023-05-18T00:00:06.866Z,-85
2023-05-18T00:02:34.272Z,-82
2023-05-18T00:05:02.873Z,-79
2023-05-18T00:07:34.297Z,-83
2023-05-18T00:10:01.732Z,-84
2023-05-18T00:12:28.460Z,-85
2023-05-18T00:14:55.285Z,-85
2023-05-18T00:17:22.292Z,-82
2023-05-18T00:19:50.413Z,-83
2023-05-18T00:22:20.338Z,-85
2023-05-18T00:24:47.374Z,-85
2023-05-18T00:27:14.167Z,-84
2023-05-18T00:29:41.303Z,-84
2023-05-18T00:32:07.940Z,-85
2023-05-18T00:34:34.603Z,-82
2023-05-18T00:37:01.627Z,-84
2023-05-18T00:39:28.191Z,-84
2023-05-18T00:41:55.140Z,-82
2023-05-18T00:44:21.791Z,-84
2023-05-18T00:46:48.526Z,-83
2023-05-18T00:49:15.123Z,-83
2023-05-18T00:51:42.191Z,-82
2023-05-18T00:54:09.729Z,-85
2023-05-18T00:56:37.297Z,-85
2023-05-18T00:59:04.964Z,-82
2023-05-18T01:01:37.181Z,-82
2023-05-18T01:04:05.149Z,-82
2023-05-18T01:06:41.317Z,-82
2023-05-18T01:09:09.390Z,-82
2023-05-18T01:11:54.434Z,-83
2023-05-18T01:14:21.508Z,-85
2023-05-18T01:16:59.969Z,-85
2023-05-18T01:19:45.130Z,-81
2023-05-18T01:22:30.556Z,-82
2023-05-18T01:25:05.158Z,-83
2023-05-18T01:27:37.873Z,-83
2023-05-18T01:30:05.309Z,-84
2023-05-18T01:32:39.418Z,-84
2023-05-18T01:35:06.305Z,-84
2023-05-18T01:37:32.877Z,-84
2023-05-18T01:39:59.433Z,-80
2023-05-18T01:42:28.113Z,-84
2023-05-18T01:44:57.652Z,-85
2023-05-18T01:47:25.098Z,-82
2023-05-18T01:49:55.034Z,-80
2023-05-18T01:52:24.883Z,-83
2023-05-18T01:54:54.376Z,-82
2023-05-18T01:57:24.519Z,-83
2023-05-18T01:59:51.412Z,-82
2023-05-18T02:02:18.113Z,-83
2023-05-18T02:04:44.728Z,-82
2023-05-18T02:07:11.289Z,-84
2023-05-18T02:09:37.932Z,-83
2023-05-18T02:12:05.188Z,-84
2023-05-18T02:14:34.065Z,-83
2023-05-18T02:17:01.169Z,-84
2023-05-18T02:19:27.757Z,-82
2023-05-18T02:21:54.348Z,-82
2023-05-18T02:24:23.255Z,-82
2023-05-18T02:26:49.790Z,-81
2023-05-18T02:29:16.363Z,-82
2023-05-18T02:31:43.088Z,-81
2023-05-18T02:34:10.561Z,-82
2023-05-18T02:36:40.478Z,-83
2023-05-18T02:39:07.942Z,-83
2023-05-18T02:41:34.867Z,-82
2023-05-18T02:44:03.169Z,-83
2023-05-18T02:46:29.928Z,-86
2023-05-18T02:48:56.680Z,-82
2023-05-18T02:51:23.970Z,-83
2023-05-18T02:53:52.161Z,-84
2023-05-18T02:56:18.776Z,-79
2023-05-18T02:58:45.379Z,-84
2023-05-18T03:01:15.001Z,-84
2023-05-18T03:03:42.615Z,-83
2023-05-18T03:06:09.608Z,-82
2023-05-18T03:08:37.455Z,-83
2023-05-18T03:11:04.200Z,-84
2023-05-18T03:13:30.933Z,-84
2023-05-18T03:15:57.836Z,-82
2023-05-18T03:18:25.773Z,-83
2023-05-18T03:20:53.247Z,-83
2023-05-18T03:23:20.387Z,-84
2023-05-18T03:25:47.337Z,-84
2023-05-18T03:28:13.875Z,-85
2023-05-18T03:30:40.424Z,-84
2023-05-18T03:33:07.046Z,-83
2023-05-18T03:35:34.218Z,-85
2023-05-18T03:38:00.792Z,-83
2023-05-18T03:40:27.443Z,-82
2023-05-18T03:42:54.060Z,-85
2023-05-18T03:45:20.713Z,-85
2023-05-18T03:47:47.848Z,-84
2023-05-18T03:50:14.481Z,-83
2023-05-18T03:52:41.709Z,-83
2023-05-18T03:55:08.910Z,-83
2023-05-18T03:57:35.447Z,-81
2023-05-18T04:00:07.703Z,-81
2023-05-18T04:02:34.419Z,-83
2023-05-18T04:05:01.507Z,-85
2023-05-18T04:07:28.027Z,-86
2023-05-18T04:09:56.312Z,-88
2023-05-18T04:12:23.188Z,-85
2023-05-18T04:14:50.033Z,-83
2023-05-18T04:17:22.428Z,-83
2023-05-18T04:19:50.306Z,-85
2023-05-18T04:22:16.984Z,-79
2023-05-18T04:24:45.867Z,-84
2023-05-18T04:27:12.569Z,-82
2023-05-18T04:29:42.222Z,-85
2023-05-18T04:32:09.071Z,-81
2023-05-18T04:34:38.778Z,-84
2023-05-18T04:37:10.617Z,-83
2023-05-18T04:39:40.104Z,-81
2023-05-18T04:42:06.770Z,-83
2023-05-18T04:44:37.690Z,-82
2023-05-18T04:47:04.997Z,-83
2023-05-18T04:49:33.088Z,-83
2023-05-18T04:52:00.145Z,-80
2023-05-18T04:54:28.390Z,-83
2023-05-18T04:56:55.552Z,-83
2023-05-18T04:59:26.314Z,-79
2023-05-18T05:01:55.504Z,-84
2023-05-18T05:04:22.549Z,-82
2023-05-18T05:06:49.087Z,-83
2023-05-18T05:09:15.674Z,-82
2023-05-18T05:11:44.649Z,-86
2023-05-18T05:14:11.346Z,-83
2023-05-18T05:16:37.900Z,-85
2023-05-18T05:19:04.558Z,-85
2023-05-18T05:21:32.016Z,-83
2023-05-18T05:23:58.626Z,-84
2023-05-18T05:26:25.146Z,-83
2023-05-18T05:28:51.755Z,-82
2023-05-18T05:31:18.374Z,-85
2023-05-18T05:38:54.573Z,-73
2023-05-18T05:41:22.756Z,-74
2023-05-18T05:43:49.439Z,-73
2023-05-18T05:46:15.988Z,-73
2023-05-18T05:48:54.594Z,-70
2023-05-18T05:51:21.154Z,-74
2023-05-18T05:53:49.608Z,-74
2023-05-18T05:56:16.107Z,-72
2023-05-18T05:58:42.894Z,-73
2023-05-18T06:01:09.597Z,-71
2023-05-18T06:03:37.351Z,-74
2023-05-18T06:06:04.434Z,-71
2023-05-18T06:08:31.275Z,-71
2023-05-18T06:10:57.902Z,-71
2023-05-18T06:13:24.767Z,-72
2023-05-18T06:15:51.663Z,-71
2023-05-18T06:18:18.236Z,-71
2023-05-18T06:20:45.107Z,-72
2023-05-18T06:23:11.630Z,-72
2023-05-18T06:25:38.603Z,-70
2023-05-18T06:28:05.218Z,-69
2023-05-18T06:30:31.800Z,-73
2023-05-18T06:32:58.719Z,-70
2023-05-18T06:35:25.308Z,-67
2023-05-18T06:37:51.931Z,-70
2023-05-18T06:40:18.519Z,-70
2023-05-18T06:42:45.148Z,-68
2023-05-18T06:45:12.200Z,-70
2023-05-18T06:47:39.188Z,-69
2023-05-18T06:50:06.003Z,-67
2023-05-18T06:52:32.773Z,-72
2023-05-18T06:55:01.448Z,-70
2023-05-18T06:57:28.323Z,-70
2023-05-18T06:59:55.343Z,-71
2023-05-18T07:02:21.872Z,-70
2023-05-18T07:04:48.847Z,-71
2023-05-18T07:07:15.709Z,-72
2023-05-18T07:09:43.699Z,-71
2023-05-18T07:12:10.414Z,-71
2023-05-18T07:14:36.980Z,-71
2023-05-18T07:17:04.333Z,-71
2023-05-18T07:19:31.022Z,-70
2023-05-18T07:21:59.484Z,-71
2023-05-18T07:24:25.971Z,-67
2023-05-18T07:26:52.529Z,-71
2023-05-18T07:29:19.151Z,-71
2023-05-18T07:31:45.936Z,-68
2023-05-18T07:34:12.494Z,-70
2023-05-18T07:36:39.028Z,-70
2023-05-18T07:39:05.634Z,-68
2023-05-18T07:41:36.329Z,-70
2023-05-18T07:44:02.858Z,-70
2023-05-18T07:46:29.452Z,-70
2023-05-18T07:48:56.145Z,-71
2023-05-18T07:51:23.051Z,-71
2023-05-18T07:53:49.562Z,-68
2023-05-18T07:56:16.087Z,-71
2023-05-18T07:58:42.666Z,-69
2023-05-18T08:01:09.208Z,-70
2023-05-18T08:03:36.359Z,-71
2023-05-18T08:06:03.208Z,-72
2023-05-18T08:08:29.795Z,-70
2023-05-18T08:10:56.871Z,-71
2023-05-18T08:13:23.488Z,-70
2023-05-18T08:15:59.218Z,-70
2023-05-18T08:18:30.031Z,-70
2023-05-18T08:20:56.607Z,-69
2023-05-18T08:23:24.301Z,-70
2023-05-18T08:25:50.824Z,-70
2023-05-18T08:28:17.367Z,-70
2023-05-18T08:30:43.905Z,-71
2023-05-18T08:33:10.437Z,-71
2023-05-18T08:35:36.993Z,-70
2023-05-18T08:38:05.567Z,-69
2023-05-18T08:40:43.199Z,-71
2023-05-18T08:43:19.128Z,-70
2023-05-18T08:45:49.701Z,-71
2023-05-18T08:48:16.966Z,-70
2023-05-18T08:50:44.527Z,-71
2023-05-18T08:53:12.175Z,-70
2023-05-18T08:55:39.438Z,-70
2023-05-18T08:58:07.645Z,-70
2023-05-18T09:00:35.068Z,-70
2023-05-18T09:03:02.722Z,-70
2023-05-18T09:05:29.740Z,-70
2023-05-18T09:07:56.770Z,-71
2023-05-18T09:10:24.249Z,-72
2023-05-18T09:12:51.782Z,-71
2023-05-18T09:15:18.633Z,-71
2023-05-18T09:17:47.626Z,-72
2023-05-18T09:20:14.556Z,-73
2023-05-18T09:22:41.239Z,-70
2023-05-18T09:25:10.964Z,-71
2023-05-18T09:27:37.911Z,-70
2023-05-18T09:30:05.376Z,-70
2023-05-18T09:32:35.008Z,-72
2023-05-18T09:35:07.831Z,-71
2023-05-18T09:37:34.806Z,-72
2023-05-18T09:40:02.882Z,-70
2023-05-18T09:42:39.253Z,-69
2023-05-18T09:45:16.602Z,-69
2023-05-18T09:47:43.303Z,-71
2023-05-18T09:50:09.922Z,-72
2023-05-18T09:52:43.451Z,-70
2023-05-18T09:55:15.761Z,-70
2023-05-18T09:57:46.557Z,-70
2023-05-18T10:00:14.708Z,-70
2023-05-18T10:02:42.094Z,-70
2023-05-18T10:05:27.407Z,-72
2023-05-18T10:07:55.413Z,-72
2023-05-18T10:10:22.572Z,-70
2023-05-18T10:12:52.502Z,-70
2023-05-18T10:15:20.852Z,-70
2023-05-18T10:17:48.027Z,-67
2023-05-18T10:20:17.440Z,-71
2023-05-18T10:22:45.731Z,-70
2023-05-18T10:25:14.421Z,-71
2023-05-18T10:27:42.500Z,-70
2023-05-18T10:30:09.815Z,-70
2023-05-18T10:32:36.940Z,-70
2023-05-18T10:35:05.618Z,-70
2023-05-18T10:37:33.687Z,-70
2023-05-18T10:40:00.920Z,-70
2023-05-18T10:42:29.573Z,-68
2023-05-18T10:44:57.056Z,-70
2023-05-18T10:47:27.821Z,-70
2023-05-18T10:49:54.739Z,-71
2023-05-18T10:52:21.644Z,-70
2023-05-18T10:54:48.258Z,-70
2023-05-18T10:57:16.371Z,-70
2023-05-18T10:59:44.886Z,-70
2023-05-18T11:02:14.350Z,-70
2023-05-18T11:04:41.137Z,-70
2023-05-18T11:07:11.646Z,-68
2023-05-18T11:09:41.458Z,-70
2023-05-18T11:12:12.498Z,-69
2023-05-18T11:14:47.705Z,-70
2023-05-18T11:17:29.386Z,-71
2023-05-18T11:20:08.870Z,-70
2023-05-18T11:22:52.112Z,-71
2023-05-18T11:25:24.753Z,-72
2023-05-18T11:27:55.460Z,-71
2023-05-18T11:30:34.138Z,-70
2023-05-18T11:33:10.998Z,-71
2023-05-18T11:35:55.955Z,-71
2023-05-18T11:38:23.022Z,-70
2023-05-18T11:40:52.778Z,-72
2023-05-18T11:43:28.941Z,-70
2023-05-18T11:45:59.570Z,-70
2023-05-18T11:48:27.227Z,-72
2023-05-18T11:50:55.031Z,-75
2023-05-18T11:53:25.397Z,-74
2023-05-18T11:55:55.442Z,-74
2023-05-18T11:58:24.655Z,-74
2023-05-18T12:00:51.831Z,-74
2023-05-18T12:03:23.503Z,-74
2023-05-18T12:05:50.267Z,-75
2023-05-18T12:08:20.488Z,-74
2023-05-18T12:10:49.942Z,-74
2023-05-18T12:13:17.473Z,-75
2023-05-18T12:15:44.861Z,-74
2023-05-18T12:18:11.555Z,-74
2023-05-18T12:20:41.221Z,-73
2023-05-18T12:23:07.879Z,-73
2023-05-18T12:25:34.529Z,-74
2023-05-18T12:28:01.294Z,-73
2023-05-18T12:30:36.145Z,-73
2023-05-18T12:33:03.820Z,-74
2023-05-18T12:35:31.290Z,-74
2023-05-18T12:38:00.957Z,-74
2023-05-18T12:40:28.198Z,-73
2023-05-18T12:43:04.419Z,-74
2023-05-18T12:45:32.420Z,-72
2023-05-18T12:48:12.159Z,-74
2023-05-18T12:50:48.884Z,-73
2023-05-18T12:53:15.974Z,-73
2023-05-18T12:55:43.008Z,-73
2023-05-18T12:58:16.774Z,-74
2023-05-18T13:00:45.010Z,-73
2023-05-18T13:03:15.918Z,-73
2023-05-18T13:05:45.054Z,-73
2023-05-18T13:08:17.721Z,-73
2023-05-18T13:10:45.269Z,-73
2023-05-18T13:13:15.544Z,-73
2023-05-18T13:15:43.352Z,-73
2023-05-18T13:18:10.886Z,-73
2023-05-18T13:20:48.813Z,-73
2023-05-18T13:23:16.359Z,-73
2023-05-18T13:25:43.355Z,-73
2023-05-18T13:28:11.402Z,-75
2023-05-18T13:30:38.340Z,-73
2023-05-18T13:33:05.928Z,-73
2023-05-18T13:35:33.102Z,-72
2023-05-18T13:37:59.903Z,-74
2023-05-18T13:40:26.449Z,-73
2023-05-18T13:42:53.248Z,-74
2023-05-18T13:45:21.681Z,-74
2023-05-18T13:47:52.189Z,-74
2023-05-18T13:50:19.488Z,-74
2023-05-18T13:52:47.460Z,-75
2023-05-18T13:55:14.102Z,-74
2023-05-18T13:57:40.697Z,-74
2023-05-18T14:00:13.288Z,-74
2023-05-18T14:02:43.517Z,-74
2023-05-18T14:05:10.643Z,-75
2023-05-18T14:07:41.139Z,-74
2023-05-18T14:10:08.906Z,-75
2023-05-18T14:12:36.254Z,-74
2023-05-18T14:15:03.174Z,-74
2023-05-18T14:17:33.128Z,-74
2023-05-18T14:19:59.751Z,-74
2023-05-18T14:22:26.604Z,-74
2023-05-18T14:24:53.520Z,-73
2023-05-18T14:27:23.235Z,-74
2023-05-18T14:29:50.257Z,-74
2023-05-18T14:32:17.107Z,-73
2023-05-18T14:34:43.665Z,-73
2023-05-18T14:37:10.189Z,-72
2023-05-18T14:39:38.046Z,-75
2023-05-18T14:42:05.146Z,-75
2023-05-18T14:44:31.921Z,-76
2023-05-18T14:46:58.493Z,-75
2023-05-18T14:49:25.041Z,-75
2023-05-18T14:51:51.677Z,-75
2023-05-18T14:54:19.202Z,-75
2023-05-18T14:56:46.036Z,-75
2023-05-18T14:59:12.585Z,-75
2023-05-18T15:01:39.127Z,-73
2023-05-18T15:04:05.753Z,-73
2023-05-18T15:06:33.394Z,-73
2023-05-18T15:08:59.904Z,-71
2023-05-18T15:11:26.528Z,-73
2023-05-18T15:13:53.209Z,-73
2023-05-18T15:16:20.109Z,-73
2023-05-18T15:18:47.009Z,-74
2023-05-18T15:21:13.775Z,-73
2023-05-18T15:23:40.299Z,-73
2023-05-18T15:26:09.150Z,-73
2023-05-18T15:28:36.029Z,-73
2023-05-18T15:31:02.584Z,-73
2023-05-18T15:33:29.277Z,-73
2023-05-18T15:35:55.768Z,-73
2023-05-18T15:38:22.338Z,-73
2023-05-18T15:40:50.955Z,-72
2023-05-18T15:43:17.646Z,-73
2023-05-18T15:45:44.209Z,-73
2023-05-18T15:48:10.817Z,-73
2023-05-18T15:50:37.410Z,-73
2023-05-18T15:53:03.996Z,-73
2023-05-18T15:55:30.554Z,-73
2023-05-18T15:57:57.072Z,-73
2023-05-18T16:00:23.953Z,-76
2023-05-18T16:02:50.977Z,-74
2023-05-18T16:05:18.030Z,-73
2023-05-18T16:07:46.305Z,-73
2023-05-18T16:10:14.541Z,-75
2023-05-18T16:12:41.158Z,-74
2023-05-18T16:15:07.974Z,-74
2023-05-18T16:17:34.886Z,-74
2023-05-18T16:20:03.533Z,-73
2023-05-18T16:22:30.659Z,-73
2023-05-18T16:24:59.071Z,-74
2023-05-18T16:27:25.783Z,-73
2023-05-18T16:29:52.820Z,-73
2023-05-18T16:32:20.489Z,-73
2023-05-18T16:34:47.007Z,-74
2023-05-18T16:37:13.863Z,-74
2023-05-18T16:39:40.541Z,-74
2023-05-18T16:42:07.871Z,-74
2023-05-18T16:44:36.939Z,-73
2023-05-18T16:47:03.486Z,-73
2023-05-18T16:49:30.987Z,-73
2023-05-18T16:51:57.533Z,-73
2023-05-18T16:54:24.044Z,-73
2023-05-18T16:56:51.215Z,-74
2023-05-18T16:59:17.748Z,-73
2023-05-18T17:01:44.517Z,-74
2023-05-18T17:04:11.214Z,-75
2023-05-18T17:06:37.918Z,-73
2023-05-18T17:09:06.458Z,-73
2023-05-18T17:11:35.587Z,-73
2023-05-18T17:14:03.183Z,-73
2023-05-18T17:16:30.346Z,-74
2023-05-18T17:18:57.880Z,-74
2023-05-18T17:21:24.991Z,-74
2023-05-18T17:23:51.489Z,-74
2023-05-18T17:26:18.061Z,-73
2023-05-18T17:28:44.741Z,-73
2023-05-18T17:31:11.252Z,-73
2023-05-18T17:33:37.751Z,-74
2023-05-18T17:36:04.593Z,-73
2023-05-18T17:38:31.397Z,-73
2023-05-18T17:40:57.936Z,-73
2023-05-18T17:43:24.501Z,-75
2023-05-18T17:45:51.156Z,-75
2023-05-18T17:48:17.743Z,-75
2023-05-18T17:50:45.656Z,-84
2023-05-18T17:53:12.243Z,-77
2023-05-18T17:55:38.907Z,-78
2023-05-18T17:58:05.446Z,-77
2023-05-18T18:03:10.780Z,-74
2023-05-18T18:05:37.421Z,-74
2023-05-18T18:08:04.697Z,-75
2023-05-18T18:10:32.077Z,-74
2023-05-18T18:12:58.915Z,-74
2023-05-18T18:15:27.599Z,-74
2023-05-18T18:17:54.890Z,-74
2023-05-18T18:20:21.691Z,-74
2023-05-18T18:22:48.313Z,-74
2023-05-18T18:25:14.873Z,-74
2023-05-18T18:27:41.390Z,-74
2023-05-18T18:30:08.190Z,-73
2023-05-18T18:32:34.781Z,-73
2023-05-18T18:35:01.360Z,-73
2023-05-18T18:37:28.535Z,-73
2023-05-18T18:39:55.075Z,-74
2023-05-18T18:42:21.778Z,-74
2023-05-18T18:44:48.391Z,-74
2023-05-18T18:47:14.962Z,-74
2023-05-18T18:49:41.523Z,-74
2023-05-18T18:52:08.048Z,-74
2023-05-18T18:54:34.534Z,-73
2023-05-18T18:57:02.245Z,-75
2023-05-18T18:59:31.010Z,-74
2023-05-18T19:01:57.573Z,-74
2023-05-18T19:04:24.146Z,-73
2023-05-18T19:06:54.121Z,-75
2023-05-18T19:09:20.913Z,-75
2023-05-18T19:11:47.418Z,-74
2023-05-18T19:14:13.953Z,-74
2023-05-18T19:16:41.326Z,-74
2023-05-18T19:19:10.966Z,-74
2023-05-18T19:21:40.387Z,-74
2023-05-18T19:24:07.589Z,-74
2023-05-18T19:26:34.569Z,-74
2023-05-18T19:29:01.205Z,-74
2023-05-18T19:31:27.806Z,-74
2023-05-18T19:33:54.400Z,-74
2023-05-18T19:36:20.926Z,-74
2023-05-18T19:38:47.998Z,-74
2023-05-18T19:41:14.681Z,-74
2023-05-18T19:43:41.257Z,-74
2023-05-18T19:46:07.915Z,-74
2023-05-18T19:48:34.495Z,-74
2023-05-18T19:51:01.073Z,-74
2023-05-18T19:53:27.605Z,-74
2023-05-18T19:55:54.133Z,-74
2023-05-18T19:58:20.682Z,-73
2023-05-18T20:00:47.476Z,-73
2023-05-18T20:03:14.610Z,-73
2023-05-18T20:05:43.775Z,-74
2023-05-18T20:08:10.361Z,-73
2023-05-18T20:10:36.896Z,-73
2023-05-18T20:13:03.387Z,-74
2023-05-18T20:15:32.488Z,-74
2023-05-18T20:17:59.032Z,-74
2023-05-18T20:20:30.855Z,-76
2023-05-18T20:22:57.620Z,-74
2023-05-18T20:25:25.049Z,-74
2023-05-18T20:27:52.718Z,-74
2023-05-18T20:30:19.204Z,-76
2023-05-18T20:32:45.787Z,-75
2023-05-18T20:35:13.263Z,-75
2023-05-18T20:37:41.526Z,-75
2023-05-18T20:40:09.712Z,-76
2023-05-18T20:42:40.736Z,-76
2023-05-18T20:45:08.305Z,-75
2023-05-18T20:47:35.252Z,-75
2023-05-18T20:50:02.593Z,-74
2023-05-18T20:52:29.497Z,-74
2023-05-18T20:54:56.429Z,-74
2023-05-18T20:57:23.181Z,-75
2023-05-18T20:59:50.138Z,-74
2023-05-18T21:02:17.129Z,-74
2023-05-18T21:04:43.624Z,-74
2023-05-18T21:07:10.139Z,-74
2023-05-18T21:09:36.644Z,-74
2023-05-18T21:12:03.503Z,-75
2023-05-18T21:14:30.102Z,-75
2023-05-18T21:16:57.124Z,-75
2023-05-18T21:19:23.649Z,-75
2023-05-18T21:21:50.150Z,-76
2023-05-18T21:24:17.090Z,-75
2023-05-18T21:26:43.612Z,-75
2023-05-18T21:29:10.163Z,-76
2023-05-18T21:31:36.697Z,-75
2023-05-18T21:34:03.250Z,-75
2023-05-18T21:36:34.433Z,-75
2023-05-18T21:39:01.804Z,-75
2023-05-18T21:41:28.368Z,-76
2023-05-18T21:43:54.922Z,-76
2023-05-18T21:46:22.131Z,-75
2023-05-18T21:48:49.621Z,-75
2023-05-18T21:51:16.806Z,-76
2023-05-18T21:53:43.439Z,-76
2023-05-18T21:56:12.589Z,-76
2023-05-18T21:58:39.091Z,-74
2023-05-18T22:01:06.055Z,-76
2023-05-18T22:03:32.631Z,-75
2023-05-18T22:05:59.121Z,-75
2023-05-18T22:08:26.043Z,-75
2023-05-18T22:10:55.195Z,-75
2023-05-18T22:13:21.717Z,-75
2023-05-18T22:15:48.258Z,-75
2023-05-18T22:18:15.205Z,-75
2023-05-18T22:20:41.775Z,-75
2023-05-18T22:23:09.337Z,-74
2023-05-18T22:25:35.876Z,-75
2023-05-18T22:28:02.638Z,-76
2023-05-18T22:30:29.270Z,-75
2023-05-18T22:32:57.684Z,-76
2023-05-18T22:35:24.276Z,-75
2023-05-18T22:37:50.828Z,-75
2023-05-18T22:40:17.370Z,-76
2023-05-18T22:42:43.890Z,-77
2023-05-18T22:45:11.703Z,-75
2023-05-18T22:47:39.693Z,-75
2023-05-18T22:50:07.255Z,-74
2023-05-18T22:52:35.083Z,-75
2023-05-18T22:55:01.801Z,-74
2023-05-18T22:57:28.347Z,-75
2023-05-18T22:59:54.835Z,-75
2023-05-18T23:02:21.368Z,-75
2023-05-18T23:04:47.933Z,-75
2023-05-18T23:07:14.643Z,-76
2023-05-18T23:09:42.524Z,-75
2023-05-18T23:12:10.364Z,-74
2023-05-18T23:14:36.998Z,-75
2023-05-18T23:17:03.857Z,-74
2023-05-18T23:19:30.380Z,-74
2023-05-18T23:21:59.093Z,-75
2023-05-18T23:24:25.613Z,-76
2023-05-18T23:26:52.181Z,-74
2023-05-18T23:29:18.680Z,-75
2023-05-18T23:31:45.270Z,-75
2023-05-18T23:34:12.309Z,-75
2023-05-18T23:36:40.097Z,-74
2023-05-18T23:39:07.218Z,-75
2023-05-18T23:41:34.339Z,-76
2023-05-18T23:44:01.199Z,-75
2023-05-18T23:46:28.004Z,-74
2023-05-18T23:48:54.991Z,-75
2023-05-18T23:51:22.277Z,-75
2023-05-18T23:53:49.950Z,-74
2023-05-18T23:56:16.731Z,-75
2023-05-18T23:58:44.806Z,-74
